Time;durP1;ratioP1;P1;durP2;ratioP2;P2;SDS_P1;SDS_P2;PMS_P1;PMS_P2;Temp;Humidity;BMP_temperature;BMP_pressure;BME280_temperature;BME280_humidity;BME280_pressure;Samples;Min_cycle;Max_cycle;Signal;HPM_P1;HPM_P2
2021/06/25 00:01:23;;;;;;;14.35;12.10;;;17.60;90.40;;;;;;4981529;28;20030;-73
2021/06/25 00:03:49;;;;;;;14.70;12.32;;;17.50;90.50;;;;;;4982676;28;20110;-73
2021/06/25 00:06:14;;;;;;;13.93;12.10;;;17.50;90.50;;;;;;4983179;28;20405;-73
2021/06/25 00:08:40;;;;;;;12.63;11.38;;;17.40;90.50;;;;;;4996578;28;20038;-73
2021/06/25 00:11:06;;;;;;;13.55;12.25;;;17.40;90.60;;;;;;4982929;28;20031;-74
2021/06/25 00:13:31;;;;;;;13.30;11.57;;;17.40;90.50;;;;;;4981388;28;20493;-73
2021/06/25 00:15:57;;;;;;;11.52;9.90;;;17.40;90.60;;;;;;4982213;28;20568;-73
2021/06/25 00:18:22;;;;;;;15.35;13.15;;;17.40;90.50;;;;;;4981810;28;20035;-73
2021/06/25 00:20:48;;;;;;;12.90;11.60;;;17.30;90.50;;;;;;4996569;28;20033;-73
2021/06/25 00:23:13;;;;;;;18.27;11.20;;;17.30;90.60;;;;;;4982131;28;20026;-73
2021/06/25 00:25:39;;;;;;;14.88;10.40;;;17.30;90.50;;;;;;5008858;23;20025;-75
2021/06/25 00:28:05;;;;;;;14.52;12.35;;;17.30;90.60;;;;;;5010260;28;20053;-75
2021/06/25 00:30:30;;;;;;;13.23;11.27;;;17.30;90.50;;;;;;5009980;28;20030;-75
2021/06/25 00:32:56;;;;;;;13.07;11.90;;;17.30;90.50;;;;;;5011099;28;20516;-75
2021/06/25 00:35:21;;;;;;;15.15;12.65;;;17.40;90.50;;;;;;5008806;28;20025;-75
2021/06/25 00:37:47;;;;;;;13.45;11.68;;;17.30;90.50;;;;;;5009989;28;20100;-75
2021/06/25 00:40:13;;;;;;;13.38;11.98;;;17.30;90.50;;;;;;5010652;28;20358;-75
2021/06/25 00:42:39;;;;;;;13.40;12.07;;;17.30;90.40;;;;;;5010401;28;20018;-75
2021/06/25 00:45:11;;;;;;;11.02;9.93;;;17.30;90.50;;;;;;5011073;28;20116;-75
2021/06/25 00:47:37;;;;;;;13.15;11.85;;;17.20;90.50;;;;;;5009149;28;20107;-75
2021/06/25 00:50:05;;;;;;;12.02;9.75;;;17.20;90.50;;;;;;5010757;28;20018;-75
2021/06/25 00:52:31;;;;;;;12.95;11.35;;;17.10;90.50;;;;;;5009796;28;20384;-75
2021/06/25 00:54:56;;;;;;;13.27;10.38;;;17.20;90.60;;;;;;5010035;28;20109;-75
2021/06/25 00:57:22;;;;;;;10.68;9.70;;;17.10;90.50;;;;;;5010978;28;20022;-75
2021/06/25 00:59:47;;;;;;;13.77;10.68;;;17.10;90.70;;;;;;5010405;28;20030;-75
2021/06/25 01:02:13;;;;;;;12.73;10.43;;;17.10;90.60;;;;;;5011042;28;20390;-75
2021/06/25 01:04:38;;;;;;;12.00;10.30;;;17.10;90.70;;;;;;5007479;28;20131;-74
2021/06/25 01:07:05;;;;;;;11.98;10.15;;;17.10;90.60;;;;;;5010110;28;20022;-74
2021/06/25 01:09:34;;;;;;;12.65;9.93;;;17.10;90.70;;;;;;5010239;28;20378;-74
2021/06/25 01:12:03;;;;;;;12.77;10.52;;;17.00;90.70;;;;;;5009786;28;20125;-73
2021/06/25 01:14:29;;;;;;;12.05;10.65;;;17.00;90.80;;;;;;5008108;28;20037;-72
2021/06/25 01:16:54;;;;;;;14.15;10.07;;;17.00;90.90;;;;;;5010839;28;20546;-72
2021/06/25 01:19:20;;;;;;;10.85;9.50;;;17.00;90.80;;;;;;5010289;28;20038;-74
2021/06/25 01:21:46;;;;;;;12.07;8.80;;;17.00;90.70;;;;;;5009294;28;20022;-75
2021/06/25 01:24:11;;;;;;;12.23;9.57;;;17.00;90.90;;;;;;5008570;28;20033;-75
2021/06/25 01:26:37;;;;;;;10.57;8.68;;;17.00;90.70;;;;;;5010535;28;20033;-75
2021/06/25 01:29:02;;;;;;;11.55;10.27;;;17.00;90.70;;;;;;5009677;28;20034;-75
2021/06/25 01:31:28;;;;;;;9.93;8.90;;;17.00;90.70;;;;;;5010846;28;20157;-75
2021/06/25 01:33:53;;;;;;;10.18;8.50;;;16.90;90.70;;;;;;5010373;28;20168;-75
2021/06/25 01:36:19;;;;;;;9.70;8.68;;;17.00;90.80;;;;;;5009205;28;20651;-75
2021/06/25 01:38:47;;;;;;;10.48;9.38;;;17.00;90.70;;;;;;5007168;28;20109;-75
2021/06/25 01:41:13;;;;;;;11.23;8.45;;;17.00;90.40;;;;;;5009577;28;20014;-75
2021/06/25 01:43:39;;;;;;;8.07;7.15;;;17.00;90.20;;;;;;5009960;28;20044;-75
2021/06/25 01:46:07;;;;;;;10.30;7.55;;;16.90;90.20;;;;;;5009813;28;20465;-75
2021/06/25 01:48:34;;;;;;;11.05;7.05;;;16.80;90.20;;;;;;5009862;28;20404;-75
2021/06/25 01:50:59;;;;;;;8.55;7.22;;;16.80;90.30;;;;;;5009294;28;20034;-75
2021/06/25 01:53:25;;;;;;;11.40;7.47;;;16.80;90.30;;;;;;5008946;28;20034;-75
2021/06/25 01:55:51;;;;;;;9.23;6.95;;;16.80;90.30;;;;;;5008363;28;20032;-75
2021/06/25 01:58:19;;;;;;;7.25;6.55;;;16.70;90.20;;;;;;5008267;28;20132;-75
2021/06/25 02:01:16;;;;;;;10.02;6.80;;;16.60;90.40;;;;;;5009307;28;20050;-75
2021/06/25 02:03:43;;;;;;;9.73;6.95;;;16.60;90.50;;;;;;5007102;28;20088;-75
2021/06/25 02:06:09;;;;;;;13.73;8.07;;;16.70;90.40;;;;;;5009434;28;20022;-75
2021/06/25 02:08:38;;;;;;;6.40;5.80;;;16.70;90.60;;;;;;5006743;28;20037;-75
2021/06/25 02:11:03;;;;;;;7.22;5.82;;;16.70;90.60;;;;;;5007032;28;20032;-75
2021/06/25 02:13:29;;;;;;;6.22;5.63;;;16.70;90.70;;;;;;5009111;28;20029;-75
2021/06/25 02:15:55;;;;;;;7.18;6.47;;;16.70;90.60;;;;;;5009801;28;20388;-75
2021/06/25 02:18:20;;;;;;;7.43;6.72;;;16.70;90.60;;;;;;5009243;28;20411;-75
2021/06/25 02:20:46;;;;;;;7.45;6.75;;;16.70;90.70;;;;;;5009921;28;20026;-75
2021/06/25 02:23:11;;;;;;;7.82;7.00;;;16.70;90.80;;;;;;5008837;28;20417;-75
2021/06/25 02:25:37;;;;;;;8.40;7.43;;;16.70;90.60;;;;;;5013796;28;20092;-75
2021/06/25 02:28:03;;;;;;;7.35;6.70;;;16.70;90.70;;;;;;5013575;28;20117;-75
2021/06/25 02:30:28;;;;;;;8.63;5.97;;;16.60;90.40;;;;;;5015737;28;20122;-75
2021/06/25 02:32:54;;;;;;;8.00;5.85;;;16.60;90.60;;;;;;5016707;28;20910;-75
2021/06/25 02:35:19;;;;;;;10.07;7.97;;;16.60;90.70;;;;;;5015402;28;20405;-75
2021/06/25 02:37:45;;;;;;;7.13;6.45;;;16.70;90.60;;;;;;5015678;28;20049;-75
2021/06/25 02:40:12;;;;;;;7.45;6.03;;;16.70;90.60;;;;;;5012843;28;20541;-75
2021/06/25 02:42:38;;;;;;;7.32;5.63;;;16.80;90.60;;;;;;5016268;28;20627;-75
2021/06/25 02:45:05;;;;;;;13.27;7.25;;;16.70;90.60;;;;;;5016048;28;20037;-75
2021/06/25 02:47:30;;;;;;;8.75;6.82;;;16.70;90.70;;;;;;5014731;28;20029;-73
2021/06/25 02:49:56;;;;;;;9.98;6.78;;;16.60;90.80;;;;;;5015126;28;20030;-72
2021/06/25 02:52:21;;;;;;;9.27;7.22;;;16.60;90.70;;;;;;5015385;28;20084;-72
2021/06/25 02:54:47;;;;;;;9.77;6.38;;;16.60;90.70;;;;;;5016091;28;20022;-72
2021/06/25 02:57:12;;;;;;;5.80;5.35;;;16.60;90.80;;;;;;5016409;28;20105;-72
2021/06/25 02:59:38;;;;;;;9.80;6.70;;;16.50;90.70;;;;;;5013096;28;20099;-73
2021/06/25 03:02:03;;;;;;;6.90;6.13;;;16.50;90.80;;;;;;5015573;28;20073;-72
2021/06/25 03:04:29;;;;;;;6.55;5.65;;;16.40;90.90;;;;;;5015571;28;20033;-72
2021/06/25 03:06:54;;;;;;;11.18;6.57;;;16.40;91.10;;;;;;5014539;28;20088;-73
2021/06/25 03:09:20;;;;;;;9.88;6.97;;;16.40;91.20;;;;;;5014029;28;20060;-72
2021/06/25 03:11:45;;;;;;;8.65;7.07;;;16.40;91.20;;;;;;5016007;28;20397;-72
2021/06/25 03:14:11;;;;;;;8.38;7.55;;;16.30;91.30;;;;;;5027214;28;20116;-72
2021/06/25 03:16:36;;;;;;;8.30;7.47;;;16.30;91.40;;;;;;5015189;28;20038;-72
2021/06/25 03:19:03;;;;;;;8.93;8.02;;;16.30;91.60;;;;;;5013953;28;20029;-72
2021/06/25 03:21:29;;;;;;;10.18;8.25;;;16.30;91.60;;;;;;5015917;28;20030;-72
2021/06/25 03:23:54;;;;;;;8.38;7.57;;;16.30;91.60;;;;;;5014089;28;20034;-72
2021/06/25 03:26:20;;;;;;;8.30;7.50;;;16.20;91.70;;;;;;5015505;28;20516;-72
2021/06/25 03:28:45;;;;;;;9.25;7.60;;;16.20;91.80;;;;;;5029487;28;20037;-72
2021/06/25 03:31:11;;;;;;;11.85;7.68;;;16.20;91.90;;;;;;5014029;28;20064;-72
2021/06/25 03:33:36;;;;;;;7.75;6.88;;;16.10;91.90;;;;;;5016343;28;20034;-73
2021/06/25 03:36:02;;;;;;;8.23;7.43;;;16.20;92.00;;;;;;5012072;28;20026;-73
2021/06/25 03:38:30;;;;;;;9.88;8.68;;;16.20;92.00;;;;;;5012206;28;20084;-72
2021/06/25 03:40:55;;;;;;;8.73;7.78;;;16.30;91.90;;;;;;5012658;28;20022;-72
2021/06/25 03:43:21;;;;;;;11.02;7.70;;;16.40;91.80;;;;;;5012010;28;20037;-72
2021/06/25 03:45:47;;;;;;;11.85;8.07;;;16.40;91.80;;;;;;5011236;28;20452;-72
2021/06/25 03:48:12;;;;;;;12.75;7.28;;;16.40;91.80;;;;;;5009743;28;20105;-72
2021/06/25 03:50:38;;;;;;;8.52;7.57;;;16.40;91.70;;;;;;5011609;28;20034;-72
2021/06/25 03:53:04;;;;;;;11.48;7.13;;;16.50;91.70;;;;;;5011269;28;20408;-74
2021/06/25 03:55:29;;;;;;;8.43;7.25;;;16.50;91.60;;;;;;5011675;28;20405;-72
2021/06/25 03:57:55;;;;;;;8.98;7.65;;;16.70;91.40;;;;;;5010801;28;20381;-73
2021/06/25 04:00:20;;;;;;;10.18;7.40;;;16.60;91.10;;;;;;5009713;28;20023;-73
2021/06/25 04:02:46;;;;;;;9.20;7.93;;;16.60;91.30;;;;;;5008034;28;20080;-72
2021/06/25 04:05:13;;;;;;;8.88;6.78;;;16.60;91.30;;;;;;5010658;28;20029;-72
2021/06/25 04:07:39;;;;;;;10.07;7.82;;;16.50;91.30;;;;;;5011218;28;20029;-73
2021/06/25 04:10:07;;;;;;;8.57;7.57;;;16.60;91.20;;;;;;5010207;28;20022;-72
2021/06/25 04:12:33;;;;;;;11.30;7.75;;;16.70;91.10;;;;;;5010496;28;20034;-72
2021/06/25 04:15:00;;;;;;;10.85;8.20;;;16.70;91.00;;;;;;5009488;28;20026;-75
2021/06/25 04:17:25;;;;;;;12.80;7.88;;;16.60;91.00;;;;;;5008936;28;20026;-75
2021/06/25 04:19:51;;;;;;;9.02;8.05;;;16.50;91.10;;;;;;5009735;28;20116;-75
2021/06/25 04:22:17;;;;;;;8.75;7.75;;;16.40;91.30;;;;;;5009912;28;20447;-75
2021/06/25 04:24:43;;;;;;;13.13;8.43;;;16.30;91.30;;;;;;5011164;28;20776;-74
2021/06/25 04:27:08;;;;;;;8.05;7.30;;;16.30;91.50;;;;;;5010522;28;20124;-74
2021/06/25 04:29:34;;;;;;;8.15;7.35;;;16.30;91.50;;;;;;5009811;28;20061;-74
2021/06/25 04:32:00;;;;;;;8.70;7.38;;;16.40;91.60;;;;;;5008819;28;20034;-74
2021/06/25 04:34:26;;;;;;;9.10;7.72;;;16.40;91.60;;;;;;5009056;28;20094;-75
2021/06/25 04:36:51;;;;;;;10.18;7.38;;;16.50;91.70;;;;;;5009183;28;20029;-74
2021/06/25 04:39:17;;;;;;;8.63;7.38;;;16.50;91.60;;;;;;5009531;28;20033;-75
2021/06/25 04:41:43;;;;;;;7.68;6.55;;;16.40;91.60;;;;;;5010264;28;20564;-73
2021/06/25 04:44:08;;;;;;;11.90;7.82;;;16.50;91.50;;;;;;5011134;28;20022;-73
2021/06/25 04:46:34;;;;;;;13.50;7.78;;;16.60;91.40;;;;;;4999570;28;20029;-73
2021/06/25 04:49:00;;;;;;;7.00;6.30;;;16.70;91.20;;;;;;5008534;28;20401;-76
2021/06/25 04:51:26;;;;;;;12.38;7.63;;;16.80;91.30;;;;;;5008779;28;20042;-71
2021/06/25 04:53:52;;;;;;;10.15;7.78;;;16.90;91.00;;;;;;5016034;28;20390;-72
2021/06/25 04:56:18;;;;;;;10.95;9.85;;;16.90;90.90;;;;;;5009962;28;20080;-71
2021/06/25 04:58:44;;;;;;;17.00;8.95;;;16.80;91.00;;;;;;5009205;28;20120;-72
2021/06/25 05:01:10;;;;;;;9.38;8.35;;;16.70;91.10;;;;;;5006321;28;20109;-70
2021/06/25 05:03:37;;;;;;;14.55;9.52;;;16.70;91.20;;;;;;5009367;28;20033;-70
2021/06/25 05:06:03;;;;;;;9.57;8.45;;;16.70;91.20;;;;;;5010130;28;20084;-70
2021/06/25 05:08:28;;;;;;;12.10;9.18;;;16.70;91.10;;;;;;5009241;28;20709;-70
2021/06/25 05:10:54;;;;;;;11.65;8.20;;;16.70;91.20;;;;;;5007880;28;20320;-70
2021/06/25 05:13:19;;;;;;;9.82;7.78;;;16.70;91.20;;;;;;5008076;28;20038;-71
2021/06/25 05:15:45;;;;;;;11.63;8.05;;;16.70;91.20;;;;;;5005574;28;20038;-71
2021/06/25 05:18:16;;;;;;;10.18;8.63;;;16.70;91.20;;;;;;5006617;28;20042;-70
2021/06/25 05:20:42;;;;;;;10.80;8.02;;;16.70;91.20;;;;;;5008730;28;20049;-70
2021/06/25 05:23:09;;;;;;;9.65;8.25;;;16.70;91.20;;;;;;5008990;28;20014;-70
2021/06/25 05:25:35;;;;;;;8.98;7.88;;;16.70;91.10;;;;;;5008840;28;20030;-70
2021/06/25 05:28:00;;;;;;;10.60;7.97;;;16.70;91.10;;;;;;5008586;28;20030;-70
2021/06/25 05:30:26;;;;;;;10.05;8.30;;;16.70;91.20;;;;;;5008900;28;20025;-70
2021/06/25 05:32:51;;;;;;;10.38;8.07;;;16.70;91.20;;;;;;5008397;28;20068;-70
2021/06/25 05:35:17;;;;;;;10.63;7.82;;;16.70;91.20;;;;;;5007263;28;20030;-70
2021/06/25 05:37:42;;;;;;;13.30;8.55;;;16.80;91.30;;;;;;5009419;28;20385;-70
2021/06/25 05:40:08;;;;;;;11.40;9.40;;;16.80;91.00;;;;;;5008390;28;20101;-70
2021/06/25 05:42:34;;;;;;;15.95;7.60;;;16.80;90.90;;;;;;5009086;28;20026;-70
2021/06/25 05:44:59;;;;;;;12.27;7.80;;;16.90;91.00;;;;;;5009852;28;20097;-70
2021/06/25 05:47:25;;;;;;;10.35;8.75;;;17.00;90.90;;;;;;5009295;28;20033;-70
2021/06/25 05:49:50;;;;;;;13.05;8.13;;;17.10;90.70;;;;;;5009290;28;20037;-70
2021/06/25 05:52:16;;;;;;;13.90;8.45;;;17.20;90.70;;;;;;5008409;28;20022;-70
2021/06/25 05:54:41;;;;;;;8.75;7.82;;;17.30;90.50;;;;;;5006403;28;20096;-70
2021/06/25 05:57:07;;;;;;;13.10;7.45;;;17.30;90.20;;;;;;5006525;28;20152;-72
2021/06/25 05:59:34;;;;;;;10.85;8.77;;;17.30;90.30;;;;;;5006019;28;20501;-70
2021/06/25 06:01:59;;;;;;;10.20;8.77;;;17.40;90.30;;;;;;5006126;28;20058;-73
2021/06/25 06:04:25;;;;;;;10.10;7.57;;;17.60;89.30;;;;;;5009581;28;20053;-72
2021/06/25 06:06:51;;;;;;;8.70;7.78;;;17.60;88.70;;;;;;5008899;28;20037;-72
2021/06/25 06:09:16;;;;;;;11.27;8.15;;;17.50;88.00;;;;;;5006215;28;20030;-73
2021/06/25 06:11:42;;;;;;;12.70;8.02;;;17.50;88.50;;;;;;5007152;28;20129;-73
2021/06/25 06:14:07;;;;;;;11.23;7.80;;;17.60;88.30;;;;;;5007745;28;20038;-73
2021/06/25 06:16:34;;;;;;;16.73;9.15;;;17.50;87.70;;;;;;5000422;28;20040;-70
2021/06/25 06:19:00;;;;;;;11.43;8.07;;;17.50;87.70;;;;;;4997915;28;20033;-70
2021/06/25 06:21:26;;;;;;;11.85;8.48;;;17.40;88.10;;;;;;5003902;28;20026;-71
2021/06/25 06:34:33;;;;;;;9.43;7.70;;;17.70;88.30;;;;;;5008452;28;20025;-76
2021/06/25 06:36:58;;;;;;;9.77;7.78;;;18.10;87.90;;;;;;4994528;28;20046;-75
2021/06/25 06:39:24;;;;;;;15.02;7.72;;;18.30;87.20;;;;;;4978910;28;20031;-75
2021/06/25 06:41:50;;;;;;;8.90;7.82;;;18.50;86.00;;;;;;4979481;28;21219;-77
2021/06/25 06:44:15;;;;;;;10.00;8.90;;;18.50;85.40;;;;;;4980552;28;20434;-76
2021/06/25 06:46:41;;;;;;;8.55;7.65;;;18.40;85.50;;;;;;4978875;28;20544;-76
2021/06/25 06:49:07;;;;;;;9.57;7.30;;;18.40;85.20;;;;;;4979507;28;20080;-74
2021/06/25 06:51:32;;;;;;;9.90;7.80;;;18.30;85.80;;;;;;4980346;28;20043;-74
2021/06/25 06:54:00;;;;;;;12.57;6.75;;;18.50;85.70;;;;;;4979985;28;20034;-74
2021/06/25 06:56:25;;;;;;;9.02;8.20;;;18.70;85.20;;;;;;4993436;28;20120;-81
2021/06/25 06:58:53;;;;;;;9.77;7.57;;;18.90;84.60;;;;;;4979282;28;20272;-78
2021/06/25 07:01:19;;;;;;;19.17;8.05;;;18.90;83.90;;;;;;4981078;28;20014;-76
2021/06/25 07:03:44;;;;;;;9.57;6.85;;;18.80;83.00;;;;;;4979055;28;20023;-77
2021/06/25 07:06:10;;;;;;;11.07;7.28;;;18.60;83.10;;;;;;4980255;28;20113;-84
2021/06/25 07:08:36;;;;;;;10.57;7.32;;;18.60;82.80;;;;;;4994676;28;20412;-81
2021/06/25 07:11:02;;;;;;;9.95;7.47;;;18.50;83.30;;;;;;4983462;28;20469;-78
2021/06/25 07:13:29;;;;;;;8.70;7.38;;;18.50;83.50;;;;;;4984109;28;20038;-70
2021/06/25 07:15:55;;;;;;;8.88;7.40;;;18.60;83.50;;;;;;4982154;28;20026;-71
2021/06/25 07:18:22;;;;;;;13.25;7.85;;;18.60;83.00;;;;;;4996465;28;20580;-72
2021/06/25 07:20:48;;;;;;;10.90;8.15;;;18.70;82.70;;;;;;4997387;28;20361;-76
2021/06/25 07:23:14;;;;;;;11.98;8.02;;;18.70;83.10;;;;;;4997399;28;20031;-72
2021/06/25 07:25:40;;;;;;;11.98;7.63;;;18.80;82.90;;;;;;4982596;28;20038;-75
2021/06/25 07:28:06;;;;;;;12.02;7.30;;;19.00;82.70;;;;;;4983031;28;20081;-73
2021/06/25 07:30:32;;;;;;;11.18;7.78;;;19.10;82.00;;;;;;4983181;28;20049;-73
2021/06/25 07:32:58;;;;;;;11.32;7.70;;;19.10;80.90;;;;;;4999800;28;20121;-75
2021/06/25 07:35:24;;;;;;;13.80;7.22;;;19.20;80.10;;;;;;4984025;28;20101;-74
2021/06/25 07:37:49;;;;;;;11.68;7.05;;;19.30;80.60;;;;;;4982990;28;20118;-74
2021/06/25 07:40:39;;;;;;;8.15;6.70;;;19.40;80.60;;;;;;4996902;28;20031;-75
2021/06/25 07:43:11;;;;;;;8.52;5.85;;;19.50;79.00;;;;;;4982676;28;20034;-76
2021/06/25 07:45:58;;;;;;;10.57;7.38;;;19.60;79.70;;;;;;4983123;28;20053;-75
2021/06/25 07:48:50;;;;;;;9.68;6.80;;;19.80;78.00;;;;;;4981887;28;20035;-79
2021/06/25 07:51:18;;;;;;;8.45;6.72;;;20.00;78.20;;;;;;4994035;28;20093;-81
2021/06/25 07:53:44;;;;;;;12.35;8.13;;;20.30;78.20;;;;;;4998116;28;20583;-83
2021/06/25 07:56:25;;;;;;;7.85;6.32;;;20.40;77.90;;;;;;4984294;28;20202;-74
2021/06/25 07:59:38;;;;;;;10.10;8.98;;;20.70;77.50;;;;;;4983483;28;20035;-76
2021/06/25 08:02:52;;;;;;;9.70;6.77;;;20.90;77.10;;;;;;4984734;28;20030;-75
2021/06/25 08:05:30;;;;;;;10.95;7.18;;;21.10;76.90;;;;;;4980139;28;20081;-80
2021/06/25 08:09:07;;;;;;;11.65;7.95;;;21.40;76.60;;;;;;4982859;28;20046;-77
2021/06/25 08:11:52;;;;;;;13.57;6.88;;;21.80;75.60;;;;;;4982964;28;20167;-76
2021/06/25 08:14:18;;;;;;;16.05;8.48;;;22.00;74.70;;;;;;4983509;28;20898;-80
2021/06/25 08:16:50;;;;;;;7.70;6.72;;;22.10;74.30;;;;;;5001278;28;20117;-81
2021/06/25 08:19:27;;;;;;;8.77;6.88;;;22.00;73.90;;;;;;4982249;28;20054;-79
2021/06/25 08:22:56;;;;;;;7.10;6.40;;;21.90;73.50;;;;;;4990825;28;20101;-85
2021/06/25 08:25:41;;;;;;;9.10;7.40;;;22.00;73.00;;;;;;4983217;28;20117;-73
2021/06/25 08:28:06;;;;;;;9.65;8.70;;;21.90;72.40;;;;;;4981682;28;20129;-75
2021/06/25 08:30:33;;;;;;;9.27;7.60;;;21.70;72.00;;;;;;4982438;28;20120;-76
2021/06/25 08:32:58;;;;;;;7.93;7.22;;;21.40;73.20;;;;;;4983575;28;20050;-76
2021/06/25 08:35:24;;;;;;;8.82;7.95;;;21.20;73.70;;;;;;4997818;28;20026;-76
2021/06/25 08:37:51;;;;;;;15.07;7.90;;;21.20;74.50;;;;;;4981638;28;20038;-75
2021/06/25 08:40:17;;;;;;;10.48;9.10;;;21.20;74.50;;;;;;4980440;28;20042;-75
2021/06/25 08:42:43;;;;;;;9.63;8.63;;;21.20;74.40;;;;;;4981950;28;20027;-78
2021/06/25 08:45:11;;;;;;;14.93;9.27;;;21.10;74.40;;;;;;4984163;28;20038;-79
2021/06/25 08:47:56;;;;;;;11.02;8.73;;;21.00;74.10;;;;;;4982097;28;20026;-71
2021/06/25 08:50:23;;;;;;;10.13;7.28;;;21.00;74.30;;;;;;4982291;28;20037;-79
2021/06/25 08:52:51;;;;;;;17.40;8.63;;;21.10;74.50;;;;;;4983064;28;20058;-77
2021/06/25 08:55:18;;;;;;;9.68;8.35;;;21.40;74.20;;;;;;4996716;28;20126;-76
2021/06/25 08:57:44;;;;;;;17.27;8.13;;;21.50;73.60;;;;;;4996227;28;20023;-73
2021/06/25 09:00:13;;;;;;;10.55;8.40;;;21.60;73.30;;;;;;4982020;28;20494;-77
2021/06/25 09:02:39;;;;;;;11.00;6.90;;;21.70;73.00;;;;;;4981383;28;20042;-73
2021/06/25 09:05:07;;;;;;;15.95;8.35;;;21.90;73.00;;;;;;4982054;28;20043;-78
2021/06/25 09:07:41;;;;;;;10.88;8.18;;;22.30;72.80;;;;;;4986833;28;20062;-79
2021/06/25 09:10:08;;;;;;;12.88;8.77;;;22.60;72.40;;;;;;4982050;28;20537;-81
2021/06/25 09:12:34;;;;;;;8.38;7.55;;;22.90;70.10;;;;;;4982166;28;20089;-78
2021/06/25 09:15:11;;;;;;;8.00;7.20;;;22.80;70.30;;;;;;4978848;28;20038;-80
2021/06/25 09:18:01;;;;;;;9.82;7.40;;;22.60;70.30;;;;;;4984155;28;20065;-78
2021/06/25 09:20:47;;;;;;;7.63;6.50;;;22.50;70.40;;;;;;4981907;28;20092;-76
2021/06/25 09:23:33;;;;;;;13.18;7.60;;;22.50;70.70;;;;;;4981355;28;20035;-75
2021/06/25 09:26:05;;;;;;;8.88;7.55;;;22.70;70.60;;;;;;4983769;28;20521;-78
2021/06/25 09:28:35;;;;;;;11.07;8.57;;;22.80;70.00;;;;;;4980070;28;20054;-78
2021/06/25 09:31:13;;;;;;;14.13;12.02;;;22.80;69.20;;;;;;4983328;28;20027;-77
2021/06/25 09:33:46;;;;;;;12.13;8.30;;;22.60;69.90;;;;;;4981760;28;20035;-77
2021/06/25 09:36:21;;;;;;;13.38;10.68;;;22.60;70.30;;;;;;4981613;28;20046;-74
2021/06/25 09:38:54;;;;;;;10.55;8.13;;;22.60;69.10;;;;;;4982329;28;20160;-75
2021/06/25 09:41:21;;;;;;;12.50;9.68;;;22.60;70.10;;;;;;4983167;28;20046;-75
2021/06/25 09:44:05;;;;;;;14.85;10.48;;;22.70;70.00;;;;;;4998974;28;20026;-77
2021/06/25 09:46:51;;;;;;;19.52;10.57;;;22.80;69.70;;;;;;4981731;28;20030;-74
2021/06/25 09:49:22;;;;;;;13.43;9.17;;;22.80;69.80;;;;;;4996123;28;20375;-76
2021/06/25 09:51:59;;;;;;;12.40;9.82;;;22.90;69.80;;;;;;4979713;28;20084;-76
2021/06/25 09:54:26;;;;;;;14.75;12.02;;;23.00;69.30;;;;;;4995590;28;20026;-75
2021/06/25 09:57:06;;;;;;;16.65;11.60;;;23.10;69.60;;;;;;4981566;28;20054;-76
2021/06/25 10:02:20;;;;;;;13.43;11.20;;;23.30;68.90;;;;;;4980575;28;20038;-76
2021/06/25 10:04:47;;;;;;;13.27;10.75;;;23.40;68.60;;;;;;4979870;28;20023;-75
2021/06/25 10:07:21;;;;;;;11.63;9.55;;;23.50;68.10;;;;;;4979975;28;20046;-75
2021/06/25 10:09:49;;;;;;;16.60;11.60;;;23.70;68.00;;;;;;4980253;28;20066;-75
2021/06/25 10:12:16;;;;;;;13.10;11.52;;;24.10;67.50;;;;;;4979890;28;20037;-74
2021/06/25 10:14:43;;;;;;;12.85;10.82;;;24.20;67.40;;;;;;4979895;28;20130;-75
2021/06/25 10:17:09;;;;;;;14.35;12.90;;;24.00;67.80;;;;;;4980491;28;20444;-74
2021/06/25 10:19:41;;;;;;;15.02;13.55;;;23.80;66.90;;;;;;4978225;28;20031;-74
2021/06/25 10:22:17;;;;;;;13.35;10.63;;;23.60;67.60;;;;;;4980603;28;20034;-77
2021/06/25 10:24:57;;;;;;;14.00;10.90;;;23.40;67.60;;;;;;4982469;28;20030;-77
2021/06/25 10:27:52;;;;;;;10.40;9.30;;;23.40;68.00;;;;;;4969515;28;20126;-77
2021/06/25 10:30:38;;;;;;;13.57;12.20;;;23.70;67.90;;;;;;4979705;28;20062;-75
2021/06/25 10:33:04;;;;;;;17.40;14.70;;;24.00;67.00;;;;;;4978953;28;20057;-75
2021/06/25 10:35:29;;;;;;;14.20;12.80;;;24.00;66.70;;;;;;4980439;28;20030;-74
2021/06/25 10:37:56;;;;;;;15.38;13.50;;;23.80;66.70;;;;;;4979238;28;20403;-75
2021/06/25 10:40:26;;;;;;;13.73;12.27;;;23.80;67.00;;;;;;4980535;28;20053;-75
2021/06/25 10:42:54;;;;;;;15.50;13.77;;;23.80;66.70;;;;;;4979921;28;20050;-75
2021/06/25 10:45:37;;;;;;;16.67;15.07;;;23.80;66.70;;;;;;4982107;28;20019;-75
2021/06/25 10:48:02;;;;;;;14.98;13.60;;;23.80;66.60;;;;;;4981071;28;20089;-75
2021/06/25 10:50:28;;;;;;;18.88;13.32;;;23.80;66.70;;;;;;4983582;28;20034;-76
2021/06/25 10:53:17;;;;;;;15.55;13.88;;;23.90;66.50;;;;;;4983744;28;20429;-73
2021/06/25 10:55:58;;;;;;;20.98;14.25;;;24.00;66.40;;;;;;4981589;28;20493;-73
2021/06/25 10:58:25;;;;;;;23.38;15.55;;;24.20;66.00;;;;;;4983014;28;20038;-74
2021/06/25 11:00:57;;;;;;;15.25;13.52;;;24.40;65.80;;;;;;4984377;28;20034;-74
2021/06/25 11:03:42;;;;;;;15.15;13.63;;;24.50;64.90;;;;;;4984182;28;20137;-75
2021/06/25 11:06:30;;;;;;;17.27;15.55;;;24.60;64.10;;;;;;4982753;28;20019;-76
2021/06/25 11:09:05;;;;;;;18.00;15.82;;;24.50;64.30;;;;;;4980954;28;20422;-76
2021/06/25 11:11:31;;;;;;;16.88;15.10;;;24.40;64.90;;;;;;4985976;28;20508;-87
2021/06/25 11:13:57;;;;;;;18.13;15.75;;;24.50;65.10;;;;;;4986150;28;20030;-80
2021/06/25 11:16:23;;;;;;;20.77;17.73;;;24.60;64.70;;;;;;4986147;28;20689;-80
2021/06/25 11:18:49;;;;;;;15.80;13.82;;;24.70;64.30;;;;;;4989836;28;20045;-78
2021/06/25 11:21:14;;;;;;;18.75;16.83;;;24.90;65.20;;;;;;4985550;28;20023;-80
2021/06/25 11:23:42;;;;;;;22.33;17.10;;;25.10;64.60;;;;;;4983471;28;20461;-80
2021/06/25 11:26:14;;;;;;;18.83;16.95;;;25.20;64.60;;;;;;4984769;28;20367;-77
2021/06/25 11:28:47;;;;;;;19.98;17.05;;;25.20;63.70;;;;;;4984396;28;20034;-76
2021/06/25 11:31:13;;;;;;;26.38;19.23;;;24.90;63.60;;;;;;4982886;28;20030;-74
2021/06/25 11:33:51;;;;;;;22.48;19.48;;;24.70;64.40;;;;;;4998723;28;20038;-76
2021/06/25 11:36:29;;;;;;;20.55;17.63;;;24.80;64.50;;;;;;4982079;28;20037;-76
2021/06/25 11:39:10;;;;;;;19.35;16.95;;;24.80;64.40;;;;;;4981062;28;20265;-77
2021/06/25 11:41:45;;;;;;;19.08;16.13;;;25.00;64.10;;;;;;4980599;28;20030;-77
2021/06/25 11:44:15;;;;;;;18.02;16.20;;;25.20;63.30;;;;;;4983221;28;20034;-75
2021/06/25 11:47:02;;;;;;;21.00;16.23;;;25.20;62.80;;;;;;4981932;28;20048;-75
2021/06/25 11:49:35;;;;;;;21.35;16.33;;;25.40;61.80;;;;;;4985963;28;20034;-75
2021/06/25 11:52:07;;;;;;;19.40;17.50;;;25.50;60.50;;;;;;4985428;28;20038;-79
2021/06/25 11:54:35;;;;;;;19.27;16.92;;;25.40;61.50;;;;;;4998364;28;20378;-76
2021/06/25 11:57:00;;;;;;;19.42;14.45;;;25.40;62.00;;;;;;4997761;28;20557;-73
2021/06/25 11:59:26;;;;;;;18.17;15.02;;;25.50;62.40;;;;;;4984186;28;20145;-73
2021/06/25 12:01:57;;;;;;;20.75;16.00;;;25.60;61.40;;;;;;4983108;28;20500;-75
2021/06/25 12:04:38;;;;;;;13.77;12.35;;;25.80;61.60;;;;;;4981736;28;20023;-76
2021/06/25 12:07:06;;;;;;;17.13;14.43;;;25.80;59.60;;;;;;4998049;28;20026;-77
2021/06/25 12:09:40;;;;;;;16.33;13.55;;;25.70;58.80;;;;;;4982601;28;20026;-76
2021/06/25 12:12:06;;;;;;;12.50;11.27;;;25.70;58.70;;;;;;4983220;28;20089;-69
2021/06/25 12:14:49;;;;;;;14.82;11.82;;;25.80;59.90;;;;;;4982699;28;20031;-72
2021/06/25 12:17:16;;;;;;;20.80;12.25;;;25.90;59.20;;;;;;4982800;28;20038;-76
2021/06/25 12:19:58;;;;;;;21.55;17.75;;;26.20;59.20;;;;;;4996319;28;20397;-72
2021/06/25 12:22:24;;;;;;;19.77;17.15;;;26.00;58.50;;;;;;4982387;28;20481;-73
2021/06/25 12:24:52;;;;;;;17.55;15.85;;;25.40;59.10;;;;;;4984952;28;20051;-73
2021/06/25 12:27:19;;;;;;;17.88;14.63;;;24.90;60.50;;;;;;5016158;22;20050;-74
2021/06/25 12:29:58;;;;;;;14.73;13.15;;;24.80;61.30;;;;;;5004730;28;20089;-74
2021/06/25 12:32:24;;;;;;;16.27;13.05;;;24.90;61.30;;;;;;5010703;28;20132;-76
2021/06/25 12:34:57;;;;;;;17.80;14.68;;;25.20;61.40;;;;;;5009558;28;20519;-76
2021/06/25 12:37:23;;;;;;;13.63;12.32;;;25.30;61.10;;;;;;5009397;28;20115;-77
2021/06/25 12:39:48;;;;;;;13.27;11.88;;;25.40;60.50;;;;;;5007260;28;20519;-77
2021/06/25 12:42:23;;;;;;;13.43;11.45;;;25.60;60.50;;;;;;5010539;28;20025;-80
2021/06/25 12:44:49;;;;;;;11.02;9.93;;;25.50;59.40;;;;;;5010788;28;20083;-76
2021/06/25 12:47:15;;;;;;;14.60;11.70;;;25.30;60.10;;;;;;5006851;28;20025;-76
2021/06/25 12:49:41;;;;;;;8.90;8.10;;;25.10;59.60;;;;;;5004230;28;20036;-76
2021/06/25 12:52:28;;;;;;;8.60;7.70;;;24.70;60.80;;;;;;5004010;28;20062;-76
2021/06/25 12:54:54;;;;;;;12.55;8.65;;;24.80;61.20;;;;;;5007143;28;20087;-74
2021/06/25 12:57:20;;;;;;;8.43;7.72;;;25.00;60.80;;;;;;5000141;28;20531;-75
2021/06/25 12:59:52;;;;;;;8.93;7.43;;;25.20;60.50;;;;;;5008944;28;20073;-73
2021/06/25 13:02:18;;;;;;;10.32;7.22;;;25.30;59.70;;;;;;5007954;28;20022;-73